Baitag, Mongolia
Current Conditions -  °F | °C
As of 5:00 PM on Thursday 23 Oct 2014 (Local Time) from ZWWW Reporting Station
Clear Clear  
Wind Chill: 68°   Ceiling: Unl
Heat Index: 68°   Visibility: 5mi
Dew Point: 39°   Wind: 7mph
Humidity: 35%   Direction: 300°WNW
Pressure: 29.88"   Gusts: NA
Location:  46.12°N, 91.47°E
Report Text: ZWWW 230900Z 30003MPS 8000 NSC 20/04 Q1012 NOSIG
Loading
Personal Weather Stations






























Interactive Weather Map New forecast layout! Learn more

10-Day Weather Forecast

Advertisements
Track Severe Weather on mobile